createdAt,value
2022-08-19T00:01:28.587Z,21.78
2022-08-19T00:06:34.316Z,21.82
2022-08-19T00:11:44.751Z,21.87
2022-08-19T00:16:55.688Z,21.86
2022-08-19T00:22:08.098Z,21.89
2022-08-19T00:27:26.348Z,21.81
2022-08-19T00:32:51.867Z,21.66
2022-08-19T00:38:17.957Z,21.53
2022-08-19T00:43:44.018Z,21.54
2022-08-19T00:49:20.635Z,21.58
2022-08-19T00:54:47.820Z,21.63
2022-08-19T01:00:30.556Z,21.64
2022-08-19T01:05:47.611Z,21.57
2022-08-19T01:11:02.067Z,21.50
2022-08-19T01:16:17.104Z,21.39
2022-08-19T01:22:14.079Z,21.30
2022-08-19T01:28:09.878Z,21.27
2022-08-19T01:33:21.219Z,21.22
2022-08-19T01:38:44.280Z,21.16
2022-08-19T01:44:09.926Z,21.13
2022-08-19T01:49:32.298Z,21.13
2022-08-19T01:54:43.158Z,21.11
2022-08-19T01:59:51.376Z,21.09
2022-08-19T02:04:59.394Z,21.06
2022-08-19T02:10:19.953Z,21.04
2022-08-19T02:15:33.466Z,21.01
2022-08-19T02:21:02.742Z,21.00
2022-08-19T02:26:37.630Z,20.96
2022-08-19T02:31:49.100Z,20.90
2022-08-19T02:37:11.141Z,20.85
2022-08-19T02:42:24.030Z,20.80
2022-08-19T02:47:58.490Z,20.77
2022-08-19T02:53:16.493Z,20.75
2022-08-19T02:58:23.964Z,20.75
2022-08-19T03:03:43.543Z,20.75
2022-08-19T03:09:00.146Z,20.75
2022-08-19T03:14:13.845Z,20.76
2022-08-19T03:19:20.351Z,20.75
2022-08-19T03:24:34.348Z,20.69
2022-08-19T03:29:51.574Z,20.60
2022-08-19T03:35:23.997Z,20.50
2022-08-19T03:40:43.019Z,20.48
2022-08-19T03:46:16.465Z,20.50
2022-08-19T03:51:38.485Z,20.60
2022-08-19T03:56:49.273Z,20.73
2022-08-19T04:02:20.196Z,20.88
2022-08-19T04:07:26.342Z,21.20
2022-08-19T04:12:34.285Z,21.59
2022-08-19T04:17:37.643Z,22.06
2022-08-19T04:22:43.814Z,22.52
2022-08-19T04:27:52.303Z,22.93
2022-08-19T04:32:55.425Z,23.31
2022-08-19T04:37:58.652Z,23.64
2022-08-19T04:43:05.065Z,23.97
2022-08-19T04:48:26.584Z,24.21
2022-08-19T04:53:38.236Z,24.21
2022-08-19T04:58:49.450Z,24.32
2022-08-19T05:03:53.815Z,24.60
2022-08-19T05:08:59.665Z,24.82
2022-08-19T05:14:06.202Z,25.08
2022-08-19T05:19:33.616Z,25.30
2022-08-19T05:24:51.256Z,25.34
2022-08-19T05:30:01.411Z,25.19
2022-08-19T05:35:09.084Z,25.45
2022-08-19T05:40:12.559Z,25.94
2022-08-19T05:45:17.969Z,26.23
2022-08-19T05:50:23.534Z,26.50
2022-08-19T05:55:26.800Z,26.81
2022-08-19T06:00:32.341Z,27.00
2022-08-19T06:05:39.182Z,26.90
2022-08-19T06:10:52.538Z,26.87
2022-08-19T06:15:58.258Z,27.15
2022-08-19T06:21:04.665Z,27.45
2022-08-19T06:26:12.800Z,27.84
2022-08-19T06:31:27.234Z,28.11
2022-08-19T06:36:42.980Z,28.32
2022-08-19T06:41:56.815Z,28.76
2022-08-19T06:47:09.444Z,29.22
2022-08-19T06:52:15.532Z,29.42
2022-08-19T06:57:21.334Z,29.52
2022-08-19T07:02:27.507Z,29.68
2022-08-19T07:07:32.623Z,29.71
2022-08-19T07:12:38.339Z,29.75
2022-08-19T07:17:42.409Z,29.82
2022-08-19T07:22:48.979Z,29.93
2022-08-19T07:27:54.471Z,29.94
2022-08-19T07:32:58.317Z,29.93
2022-08-19T07:38:04.194Z,30.04
2022-08-19T07:43:14.056Z,30.21
2022-08-19T07:48:27.097Z,30.39
2022-08-19T07:53:36.704Z,30.75
2022-08-19T07:58:46.965Z,30.95
2022-08-19T08:04:11.289Z,31.23
2022-08-19T08:09:26.925Z,31.47
2022-08-19T08:14:52.410Z,31.51
2022-08-19T08:19:59.728Z,31.61
2022-08-19T08:25:20.650Z,31.86
2022-08-19T08:30:27.184Z,31.95
2022-08-19T08:35:35.987Z,31.86
2022-08-19T08:40:52.500Z,31.81
2022-08-19T08:46:31.276Z,32.04
2022-08-19T08:51:48.754Z,32.46
2022-08-19T08:57:12.178Z,32.67
2022-08-19T09:02:15.213Z,32.75
2022-08-19T09:07:47.517Z,32.57
2022-08-19T09:13:24.606Z,32.25
2022-08-19T09:18:43.167Z,32.07
2022-08-19T09:23:46.292Z,32.30
2022-08-19T09:28:55.778Z,32.29
2022-08-19T09:34:01.777Z,32.42
2022-08-19T09:39:14.796Z,32.69
2022-08-19T09:44:21.917Z,32.94
2022-08-19T09:49:25.409Z,33.32
2022-08-19T09:54:28.932Z,33.52
2022-08-19T09:59:33.380Z,33.48
2022-08-19T10:04:56.605Z,33.61
2022-08-19T10:09:59.703Z,33.73
2022-08-19T10:15:03.423Z,33.95
2022-08-19T10:20:07.659Z,34.25
2022-08-19T10:25:11.554Z,34.34
2022-08-19T10:30:14.771Z,34.32
2022-08-19T10:35:21.864Z,33.99
2022-08-19T10:40:26.626Z,33.98
2022-08-19T10:45:29.935Z,33.80
2022-08-19T10:50:51.874Z,33.76
2022-08-19T10:56:13.489Z,33.79
2022-08-19T11:01:19.415Z,33.52
2022-08-19T11:06:22.537Z,33.49
2022-08-19T11:11:25.900Z,33.64
2022-08-19T11:16:31.145Z,33.56
2022-08-19T11:21:40.378Z,33.60
2022-08-19T11:26:50.393Z,33.45
2022-08-19T11:31:54.596Z,33.63
2022-08-19T11:36:59.771Z,34.00
2022-08-19T11:42:23.957Z,34.28
2022-08-19T11:47:27.364Z,34.49
2022-08-19T11:52:30.676Z,34.57
2022-08-19T11:57:34.001Z,34.45
2022-08-19T12:02:37.166Z,34.49
2022-08-19T12:07:41.945Z,34.36
2022-08-19T12:12:47.453Z,34.30
2022-08-19T12:18:02.216Z,34.17
2022-08-19T12:23:11.072Z,33.96
2022-08-19T12:28:14.539Z,33.87
2022-08-19T12:33:18.404Z,33.82
2022-08-19T12:38:25.374Z,33.93
2022-08-19T12:43:28.879Z,34.03
2022-08-19T12:48:35.107Z,34.03
2022-08-19T12:53:39.283Z,34.12
2022-08-19T12:58:50.224Z,34.32
2022-08-19T13:03:56.038Z,34.65
2022-08-19T13:08:59.857Z,34.87
2022-08-19T13:14:04.953Z,34.80
2022-08-19T13:19:08.558Z,34.78
2022-08-19T13:24:11.617Z,34.83
2022-08-19T13:29:33.451Z,34.62
2022-08-19T13:34:38.063Z,34.23
2022-08-19T13:39:41.550Z,34.15
2022-08-19T13:44:47.344Z,34.20
2022-08-19T13:49:51.148Z,34.33
2022-08-19T13:54:54.972Z,34.36
2022-08-19T13:59:59.651Z,34.16
2022-08-19T14:05:02.860Z,33.89
2022-08-19T14:10:09.547Z,33.76
2022-08-19T14:15:14.482Z,33.60
2022-08-19T14:20:18.989Z,33.62
2022-08-19T14:25:27.437Z,33.75
2022-08-19T14:30:36.592Z,33.64
2022-08-19T14:35:50.365Z,33.45
2022-08-19T14:40:53.846Z,33.31
2022-08-19T14:46:00.928Z,33.24
2022-08-19T14:51:07.905Z,33.17
2022-08-19T14:56:19.022Z,33.25
2022-08-19T15:01:26.543Z,33.37
2022-08-19T15:06:32.988Z,33.57
2022-08-19T15:11:39.646Z,33.76
2022-08-19T15:16:42.931Z,33.85
2022-08-19T15:21:46.174Z,33.83
2022-08-19T15:26:49.557Z,33.95
2022-08-19T15:31:58.827Z,34.06
2022-08-19T15:37:04.669Z,34.01
2022-08-19T15:42:08.719Z,33.88
2022-08-19T15:47:15.259Z,33.70
2022-08-19T15:52:21.744Z,33.43
2022-08-19T15:57:27.509Z,33.22
2022-08-19T16:02:49.485Z,33.08
2022-08-19T16:07:57.247Z,32.89
2022-08-19T16:13:00.742Z,32.78
2022-08-19T16:18:04.370Z,32.65
2022-08-19T16:23:07.495Z,32.51
2022-08-19T16:28:13.600Z,32.42
2022-08-19T16:33:22.782Z,32.31
2022-08-19T16:38:27.879Z,32.19
2022-08-19T16:43:32.468Z,32.04
2022-08-19T16:48:43.293Z,31.88
2022-08-19T16:53:46.439Z,31.70
2022-08-19T16:58:50.655Z,31.47
2022-08-19T17:03:55.699Z,31.24
2022-08-19T17:09:02.382Z,31.00
2022-08-19T17:14:08.528Z,30.77
2022-08-19T17:19:11.744Z,30.54
2022-08-19T17:24:17.031Z,30.33
2022-08-19T17:29:20.109Z,30.12
2022-08-19T17:34:23.220Z,29.92
2022-08-19T17:39:26.462Z,29.72
2022-08-19T17:44:29.556Z,29.57
2022-08-19T17:49:35.228Z,29.39
2022-08-19T17:54:39.045Z,29.19
2022-08-19T17:59:42.143Z,29.01
2022-08-19T18:04:48.659Z,28.83
2022-08-19T18:09:54.088Z,28.65
2022-08-19T18:14:58.572Z,28.50
2022-08-19T18:20:02.580Z,28.38
2022-08-19T18:25:24.263Z,28.24
2022-08-19T18:30:34.281Z,28.09
2022-08-19T18:35:39.399Z,27.98
2022-08-19T18:41:00.923Z,27.88
2022-08-19T18:46:22.542Z,27.83
2022-08-19T18:51:30.178Z,27.80
2022-08-19T18:56:55.759Z,27.78
2022-08-19T19:02:00.517Z,27.77
2022-08-19T19:07:05.975Z,27.70
2022-08-19T19:12:11.506Z,27.60
2022-08-19T19:17:16.593Z,27.50
2022-08-19T19:22:23.073Z,27.40
2022-08-19T19:27:26.511Z,27.37
2022-08-19T19:32:39.434Z,27.34
2022-08-19T19:37:44.017Z,27.29
2022-08-19T19:42:48.199Z,27.26
2022-08-19T19:47:51.492Z,27.22
2022-08-19T19:52:55.355Z,27.20
2022-08-19T19:57:58.497Z,27.15
2022-08-19T20:03:02.474Z,27.11
2022-08-19T20:08:24.113Z,27.07
2022-08-19T20:13:27.231Z,27.01
2022-08-19T20:18:31.291Z,26.97
2022-08-19T20:23:35.312Z,26.94
2022-08-19T20:28:38.318Z,26.95
2022-08-19T20:33:47.583Z,26.96
2022-08-19T20:38:51.406Z,26.97
2022-08-19T20:43:54.512Z,26.93
2022-08-19T20:48:59.140Z,26.92
2022-08-19T20:54:02.657Z,26.87
2022-08-19T20:59:10.658Z,26.79
2022-08-19T21:04:13.828Z,26.74
2022-08-19T21:09:16.787Z,26.69
2022-08-19T21:14:20.560Z,26.68
2022-08-19T21:19:24.225Z,26.67
2022-08-19T21:24:31.707Z,26.68
2022-08-19T21:29:37.565Z,26.65
2022-08-19T21:34:41.507Z,26.62
2022-08-19T21:39:47.004Z,26.59
2022-08-19T21:44:52.722Z,26.58
2022-08-19T21:49:55.705Z,26.56
2022-08-19T21:54:58.787Z,26.53
2022-08-19T22:00:02.605Z,26.48
2022-08-19T22:05:06.605Z,26.46
2022-08-19T22:10:11.323Z,26.45
2022-08-19T22:15:15.543Z,26.46
2022-08-19T22:20:27.077Z,26.47
2022-08-19T22:25:35.648Z,26.47
2022-08-19T22:30:42.410Z,26.45
2022-08-19T22:35:47.513Z,26.43
2022-08-19T22:40:53.465Z,26.38
2022-08-19T22:45:58.805Z,26.30
2022-08-19T22:51:20.301Z,26.18
2022-08-19T22:56:23.746Z,26.10
2022-08-19T23:01:30.444Z,26.02
2022-08-19T23:06:36.346Z,25.95
2022-08-19T23:11:41.970Z,25.89
2022-08-19T23:16:51.098Z,25.82
2022-08-19T23:21:54.495Z,25.53
2022-08-19T23:27:16.266Z,25.13
2022-08-19T23:32:21.658Z,24.83
2022-08-19T23:37:25.639Z,24.67
2022-08-19T23:42:29.052Z,24.61
2022-08-19T23:47:32.007Z,24.54
2022-08-19T23:52:47.513Z,24.33
2022-08-19T23:57:50.946Z,24.05
